sensor_id;sensor_type;location;lat;lon;timestamp;pressure;altitude;pressure_sealevel;temperature;humidity
63090;BME280;49174;43.198;27.824;2023-07-28T00:02:10;101431.59;;;16.26;100.00
63090;BME280;49174;43.198;27.824;2023-07-28T00:04:35;101440.19;;;16.23;100.00
63090;BME280;49174;43.198;27.824;2023-07-28T00:07:03;101440.19;;;16.23;100.00
63090;BME280;49174;43.198;27.824;2023-07-28T00:09:28;101439.56;;;16.21;100.00
63090;BME280;49174;43.198;27.824;2023-07-28T00:11:56;101430.56;;;16.20;100.00
63090;BME280;49174;43.198;27.824;2023-07-28T00:14:22;101433.09;;;16.22;100.00
63090;BME280;49174;43.198;27.824;2023-07-28T00:16:49;101430.81;;;16.19;100.00
63090;BME280;49174;43.198;27.824;2023-07-28T00:19:14;101423.28;;;16.14;100.00
63090;BME280;49174;43.198;27.824;2023-07-28T00:21:40;101428.28;;;16.17;100.00
63090;BME280;49174;43.198;27.824;2023-07-28T00:24:05;101431.00;;;16.17;100.00
63090;BME280;49174;43.198;27.824;2023-07-28T00:26:31;101436.44;;;16.17;100.00
63090;BME280;49174;43.198;27.824;2023-07-28T00:28:56;101434.16;;;16.14;100.00
63090;BME280;49174;43.198;27.824;2023-07-28T00:31:24;101433.16;;;16.08;100.00
63090;BME280;49174;43.198;27.824;2023-07-28T00:33:49;101428.13;;;16.05;100.00
63090;BME280;49174;43.198;27.824;2023-07-28T00:36:15;101433.78;;;16.04;100.00
63090;BME280;49174;43.198;27.824;2023-07-28T00:38:40;101432.75;;;15.98;100.00
63090;BME280;49174;43.198;27.824;2023-07-28T00:41:06;101436.78;;;15.89;100.00
63090;BME280;49174;43.198;27.824;2023-07-28T00:43:31;101443.44;;;15.93;100.00
63090;BME280;49174;43.198;27.824;2023-07-28T00:45:57;101432.81;;;15.85;100.00
63090;BME280;49174;43.198;27.824;2023-07-28T00:48:23;101443.28;;;15.88;100.00
63090;BME280;49174;43.198;27.824;2023-07-28T00:50:49;101441.19;;;15.83;100.00
63090;BME280;49174;43.198;27.824;2023-07-28T00:53:15;101445.38;;;15.79;100.00
63090;BME280;49174;43.198;27.824;2023-07-28T00:55:41;101441.88;;;15.72;100.00
63090;BME280;49174;43.198;27.824;2023-07-28T00:58:08;101447.94;;;15.74;100.00
63090;BME280;49174;43.198;27.824;2023-07-28T01:00:33;101444.16;;;15.75;100.00
63090;BME280;49174;43.198;27.824;2023-07-28T01:02:59;101455.44;;;15.79;100.00
63090;BME280;49174;43.198;27.824;2023-07-28T01:05:35;101454.84;;;15.77;100.00
63090;BME280;49174;43.198;27.824;2023-07-28T01:08:12;101453.38;;;15.74;100.00
63090;BME280;49174;43.198;27.824;2023-07-28T01:10:40;101456.94;;;15.75;100.00
63090;BME280;49174;43.198;27.824;2023-07-28T01:13:06;101457.97;;;15.74;100.00
63090;BME280;49174;43.198;27.824;2023-07-28T01:15:31;101458.81;;;15.74;100.00
63090;BME280;49174;43.198;27.824;2023-07-28T01:17:57;101457.13;;;15.80;100.00
63090;BME280;49174;43.198;27.824;2023-07-28T01:20:24;101445.38;;;15.79;100.00
63090;BME280;49174;43.198;27.824;2023-07-28T01:23:06;101459.19;;;15.84;100.00
63090;BME280;49174;43.198;27.824;2023-07-28T01:25:47;101451.47;;;15.81;100.00
63090;BME280;49174;43.198;27.824;2023-07-28T01:28:15;101461.06;;;15.84;100.00
63090;BME280;49174;43.198;27.824;2023-07-28T01:30:42;101458.34;;;15.84;100.00
63090;BME280;49174;43.198;27.824;2023-07-28T01:33:08;101465.47;;;15.92;100.00
63090;BME280;49174;43.198;27.824;2023-07-28T01:35:37;101460.41;;;15.95;100.00
63090;BME280;49174;43.198;27.824;2023-07-28T01:38:06;101463.38;;;15.94;100.00
63090;BME280;49174;43.198;27.824;2023-07-28T01:40:31;101466.50;;;15.91;100.00
63090;BME280;49174;43.198;27.824;2023-07-28T01:42:57;101465.88;;;15.89;100.00
63090;BME280;49174;43.198;27.824;2023-07-28T01:45:23;101478.44;;;15.90;100.00
63090;BME280;49174;43.198;27.824;2023-07-28T01:47:48;101476.34;;;15.85;100.00
63090;BME280;49174;43.198;27.824;2023-07-28T01:50:14;101473.44;;;15.80;100.00
63090;BME280;49174;43.198;27.824;2023-07-28T01:52:40;101469.25;;;15.84;100.00
63090;BME280;49174;43.198;27.824;2023-07-28T01:55:06;101468.81;;;15.87;100.00
63090;BME280;49174;43.198;27.824;2023-07-28T01:57:33;101480.13;;;15.84;100.00
63090;BME280;49174;43.198;27.824;2023-07-28T01:59:58;101476.38;;;15.78;100.00
63090;BME280;49174;43.198;27.824;2023-07-28T02:02:24;101486.19;;;15.79;100.00
63090;BME280;49174;43.198;27.824;2023-07-28T02:04:50;101490.63;;;15.80;100.00
63090;BME280;49174;43.198;27.824;2023-07-28T02:07:15;101488.72;;;15.81;100.00
63090;BME280;49174;43.198;27.824;2023-07-28T02:09:41;101483.47;;;15.79;100.00
63090;BME280;49174;43.198;27.824;2023-07-28T02:12:06;101497.09;;;15.79;100.00
63090;BME280;49174;43.198;27.824;2023-07-28T02:14:32;101503.59;;;15.78;100.00
63090;BME280;49174;43.198;27.824;2023-07-28T02:16:57;101504.00;;;15.75;100.00
63090;BME280;49174;43.198;27.824;2023-07-28T02:19:24;101503.19;;;15.75;100.00
63090;BME280;49174;43.198;27.824;2023-07-28T02:21:49;101494.19;;;15.74;100.00
63090;BME280;49174;43.198;27.824;2023-07-28T02:24:15;101505.91;;;15.75;100.00
63090;BME280;49174;43.198;27.824;2023-07-28T02:26:40;101507.34;;;15.71;100.00
63090;BME280;49174;43.198;27.824;2023-07-28T02:29:06;101511.34;;;15.68;100.00
63090;BME280;49174;43.198;27.824;2023-07-28T02:31:31;101502.53;;;15.66;100.00
63090;BME280;49174;43.198;27.824;2023-07-28T02:33:57;101509.00;;;15.65;100.00
63090;BME280;49174;43.198;27.824;2023-07-28T02:36:22;101518.00;;;15.65;100.00
63090;BME280;49174;43.198;27.824;2023-07-28T02:38:48;101514.88;;;15.62;100.00
63090;BME280;49174;43.198;27.824;2023-07-28T02:41:13;101520.13;;;15.63;100.00
63090;BME280;49174;43.198;27.824;2023-07-28T02:43:39;101517.19;;;15.58;100.00
63090;BME280;49174;43.198;27.824;2023-07-28T02:46:05;101520.34;;;15.55;100.00
63090;BME280;49174;43.198;27.824;2023-07-28T02:48:31;101520.31;;;15.49;100.00
63090;BME280;49174;43.198;27.824;2023-07-28T02:50:56;101519.28;;;15.43;100.00
63090;BME280;49174;43.198;27.824;2023-07-28T02:53:22;101521.59;;;15.33;100.00
63090;BME280;49174;43.198;27.824;2023-07-28T02:55:48;101522.44;;;15.27;100.00
63090;BME280;49174;43.198;27.824;2023-07-28T02:58:14;101527.25;;;15.25;100.00
63090;BME280;49174;43.198;27.824;2023-07-28T03:00:43;101527.44;;;15.23;100.00
63090;BME280;49174;43.198;27.824;2023-07-28T03:03:11;101528.72;;;15.27;100.00
63090;BME280;49174;43.198;27.824;2023-07-28T03:05:39;101527.03;;;15.33;100.00
63090;BME280;49174;43.198;27.824;2023-07-28T03:08:05;101526.41;;;15.31;100.00
63090;BME280;49174;43.198;27.824;2023-07-28T03:10:31;101529.13;;;15.31;100.00
63090;BME280;49174;43.198;27.824;2023-07-28T03:12:57;101534.16;;;15.34;100.00
63090;BME280;49174;43.198;27.824;2023-07-28T03:15:23;101524.94;;;15.35;100.00
63090;BME280;49174;43.198;27.824;2023-07-28T03:17:52;101529.56;;;15.41;100.00
63090;BME280;49174;43.198;27.824;2023-07-28T03:20:19;101545.44;;;15.44;100.00
63090;BME280;49174;43.198;27.824;2023-07-28T03:22:45;101550.47;;;15.47;100.00
63090;BME280;49174;43.198;27.824;2023-07-28T03:25:11;101552.56;;;15.52;100.00
63090;BME280;49174;43.198;27.824;2023-07-28T03:27:37;101548.78;;;15.59;100.00
63090;BME280;49174;43.198;27.824;2023-07-28T03:30:03;101554.66;;;15.63;100.00
63090;BME280;49174;43.198;27.824;2023-07-28T03:32:32;101556.31;;;15.64;100.00
63090;BME280;49174;43.198;27.824;2023-07-28T03:34:57;101573.69;;;15.63;100.00
63090;BME280;49174;43.198;27.824;2023-07-28T03:37:23;101574.78;;;15.69;100.00
63090;BME280;49174;43.198;27.824;2023-07-28T03:39:48;101576.81;;;15.67;100.00
63090;BME280;49174;43.198;27.824;2023-07-28T03:42:14;101582.69;;;15.70;100.00
63090;BME280;49174;43.198;27.824;2023-07-28T03:57:17;101581.56;;;16.24;100.00
63090;BME280;49174;43.198;27.824;2023-07-28T03:59:42;101577.41;;;16.22;100.00
63090;BME280;49174;43.198;27.824;2023-07-28T04:02:08;101579.50;;;16.20;100.00
63090;BME280;49174;43.198;27.824;2023-07-28T04:04:35;101580.94;;;16.16;100.00
63090;BME280;49174;43.198;27.824;2023-07-28T04:07:00;101597.94;;;16.11;100.00
63090;BME280;49174;43.198;27.824;2023-07-28T04:09:26;101595.22;;;16.11;100.00
63090;BME280;49174;43.198;27.824;2023-07-28T04:11:52;101601.06;;;16.15;100.00
63090;BME280;49174;43.198;27.824;2023-07-28T04:14:17;101608.81;;;16.18;100.00
63090;BME280;49174;43.198;27.824;2023-07-28T04:16:43;101610.50;;;16.19;100.00
63090;BME280;49174;43.198;27.824;2023-07-28T04:19:08;101614.88;;;16.20;100.00
63090;BME280;49174;43.198;27.824;2023-07-28T04:21:34;101618.66;;;16.19;100.00
63090;BME280;49174;43.198;27.824;2023-07-28T04:23:59;101611.53;;;16.18;100.00
63090;BME280;49174;43.198;27.824;2023-07-28T04:26:25;101616.97;;;16.18;100.00
63090;BME280;49174;43.198;27.824;2023-07-28T04:28:51;101621.16;;;16.20;100.00
63090;BME280;49174;43.198;27.824;2023-07-28T04:31:17;101629.34;;;16.27;100.00
63090;BME280;49174;43.198;27.824;2023-07-28T04:33:43;101630.97;;;16.35;100.00
63090;BME280;49174;43.198;27.824;2023-07-28T04:36:09;101628.25;;;16.41;100.00
63090;BME280;49174;43.198;27.824;2023-07-28T04:38:48;101630.09;;;16.47;100.00
63090;BME280;49174;43.198;27.824;2023-07-28T04:41:13;101635.31;;;16.56;100.00
63090;BME280;49174;43.198;27.824;2023-07-28T04:43:39;101633.81;;;16.60;100.00
63090;BME280;49174;43.198;27.824;2023-07-28T04:46:04;101619.75;;;16.63;100.00
63090;BME280;49174;43.198;27.824;2023-07-28T04:48:30;101621.03;;;16.67;100.00
63090;BME280;49174;43.198;27.824;2023-07-28T04:50:55;101627.69;;;16.71;100.00
63090;BME280;49174;43.198;27.824;2023-07-28T04:53:21;101621.81;;;16.74;100.00
63090;BME280;49174;43.198;27.824;2023-07-28T04:55:46;101626.22;;;16.75;100.00
63090;BME280;49174;43.198;27.824;2023-07-28T04:58:12;101625.16;;;16.76;100.00
63090;BME280;49174;43.198;27.824;2023-07-28T05:00:37;101622.03;;;16.79;100.00
63090;BME280;49174;43.198;27.824;2023-07-28T05:03:03;101620.56;;;16.83;100.00
63090;BME280;49174;43.198;27.824;2023-07-28T05:05:31;101622.63;;;16.88;100.00
63090;BME280;49174;43.198;27.824;2023-07-28T05:07:57;101627.91;;;16.83;100.00
63090;BME280;49174;43.198;27.824;2023-07-28T05:10:22;101624.53;;;16.87;100.00
63090;BME280;49174;43.198;27.824;2023-07-28T05:12:48;101625.53;;;16.93;100.00
63090;BME280;49174;43.198;27.824;2023-07-28T05:15:14;101629.69;;;17.02;100.00
63090;BME280;49174;43.198;27.824;2023-07-28T05:17:40;101624.66;;;17.06;100.00
63090;BME280;49174;43.198;27.824;2023-07-28T05:20:06;101617.09;;;17.08;100.00
63090;BME280;49174;43.198;27.824;2023-07-28T05:22:32;101616.22;;;17.14;100.00
63090;BME280;49174;43.198;27.824;2023-07-28T05:24:57;101617.66;;;17.16;100.00
63090;BME280;49174;43.198;27.824;2023-07-28T05:27:23;101621.22;;;17.17;100.00
63090;BME280;49174;43.198;27.824;2023-07-28T05:29:48;101618.06;;;17.20;100.00
63090;BME280;49174;43.198;27.824;2023-07-28T05:32:14;101612.97;;;17.30;100.00
63090;BME280;49174;43.198;27.824;2023-07-28T05:34:42;101614.81;;;17.36;100.00
63090;BME280;49174;43.198;27.824;2023-07-28T05:37:09;101617.72;;;17.41;100.00
63090;BME280;49174;43.198;27.824;2023-07-28T05:39:34;101620.19;;;17.43;100.00
63090;BME280;49174;43.198;27.824;2023-07-28T05:42:00;101623.94;;;17.49;100.00
63090;BME280;49174;43.198;27.824;2023-07-28T05:44:25;101615.47;;;17.57;100.00
63090;BME280;49174;43.198;27.824;2023-07-28T05:46:51;101612.91;;;17.62;100.00
63090;BME280;49174;43.198;27.824;2023-07-28T05:49:16;101627.34;;;17.69;100.00
63090;BME280;49174;43.198;27.824;2023-07-28T05:51:42;101622.03;;;17.81;100.00
63090;BME280;49174;43.198;27.824;2023-07-28T05:54:07;101614.84;;;17.86;100.00
63090;BME280;49174;43.198;27.824;2023-07-28T05:56:33;101620.03;;;17.95;100.00
63090;BME280;49174;43.198;27.824;2023-07-28T05:58:58;101611.31;;;18.04;100.00
63090;BME280;49174;43.198;27.824;2023-07-28T06:01:24;101607.06;;;18.08;100.00
63090;BME280;49174;43.198;27.824;2023-07-28T06:03:52;101603.44;;;18.15;98.08
63090;BME280;49174;43.198;27.824;2023-07-28T06:06:20;101612.78;;;18.25;98.80
63090;BME280;49174;43.198;27.824;2023-07-28T06:08:47;101609.91;;;18.39;100.00
63090;BME280;49174;43.198;27.824;2023-07-28T06:11:12;101608.06;;;18.51;100.00
63090;BME280;49174;43.198;27.824;2023-07-28T06:13:38;101610.50;;;18.59;97.07
63090;BME280;49174;43.198;27.824;2023-07-28T06:16:03;101603.03;;;18.66;96.27
63090;BME280;49174;43.198;27.824;2023-07-28T06:18:29;101600.63;;;18.77;96.63
63090;BME280;49174;43.198;27.824;2023-07-28T06:20:54;101607.00;;;18.89;96.50
63090;BME280;49174;43.198;27.824;2023-07-28T06:23:20;101604.66;;;19.04;96.65
63090;BME280;49174;43.198;27.824;2023-07-28T06:25:45;101610.16;;;19.16;95.03
63090;BME280;49174;43.198;27.824;2023-07-28T06:28:11;101609.97;;;19.29;93.11
63090;BME280;49174;43.198;27.824;2023-07-28T06:30:38;101605.97;;;19.43;94.00
63090;BME280;49174;43.198;27.824;2023-07-28T06:33:05;101613.13;;;19.56;92.24
63090;BME280;49174;43.198;27.824;2023-07-28T06:35:32;101610.78;;;19.72;93.31
63090;BME280;49174;43.198;27.824;2023-07-28T06:37:57;101617.22;;;19.89;90.90
63090;BME280;49174;43.198;27.824;2023-07-28T06:40:22;101620.47;;;20.09;90.67
63090;BME280;49174;43.198;27.824;2023-07-28T06:42:48;101629.13;;;20.30;88.01
63090;BME280;49174;43.198;27.824;2023-07-28T06:45:13;101620.44;;;20.45;88.19
63090;BME280;49174;43.198;27.824;2023-07-28T06:47:44;101623.97;;;20.69;86.65
63090;BME280;49174;43.198;27.824;2023-07-28T06:50:11;101632.03;;;20.87;83.99
63090;BME280;49174;43.198;27.824;2023-07-28T06:52:36;101639.47;;;21.04;84.80
63090;BME280;49174;43.198;27.824;2023-07-28T06:55:04;101635.19;;;21.25;83.64
63090;BME280;49174;43.198;27.824;2023-07-28T06:57:30;101628.69;;;21.42;80.39
63090;BME280;49174;43.198;27.824;2023-07-28T06:59:56;101634.69;;;21.56;79.00
63090;BME280;49174;43.198;27.824;2023-07-28T07:02:22;101637.69;;;21.72;79.01
63090;BME280;49174;43.198;27.824;2023-07-28T07:04:48;101632.78;;;21.91;79.56
63090;BME280;49174;43.198;27.824;2023-07-28T07:07:14;101638.44;;;22.01;76.88
63090;BME280;49174;43.198;27.824;2023-07-28T07:09:39;101645.41;;;22.08;77.57
63090;BME280;49174;43.198;27.824;2023-07-28T07:12:07;101645.41;;;22.25;74.63
63090;BME280;49174;43.198;27.824;2023-07-28T07:14:33;101649.41;;;22.35;74.22
63090;BME280;49174;43.198;27.824;2023-07-28T07:16:59;101650.94;;;22.47;72.78
63090;BME280;49174;43.198;27.824;2023-07-28T07:19:24;101646.97;;;22.60;70.61
63090;BME280;49174;43.198;27.824;2023-07-28T07:21:50;101655.31;;;22.65;69.73
63090;BME280;49174;43.198;27.824;2023-07-28T07:24:16;101660.16;;;22.80;70.45
63090;BME280;49174;43.198;27.824;2023-07-28T07:26:41;101650.63;;;22.88;68.47
63090;BME280;49174;43.198;27.824;2023-07-28T07:29:08;101648.34;;;23.02;68.26
63090;BME280;49174;43.198;27.824;2023-07-28T07:31:34;101648.25;;;23.18;69.63
63090;BME280;49174;43.198;27.824;2023-07-28T07:34:00;101648.72;;;23.37;70.27
63090;BME280;49174;43.198;27.824;2023-07-28T07:36:26;101649.19;;;23.61;71.19
63090;BME280;49174;43.198;27.824;2023-07-28T07:38:52;101641.69;;;23.84;69.42
63090;BME280;49174;43.198;27.824;2023-07-28T07:41:17;101641.25;;;23.97;67.11
63090;BME280;49174;43.198;27.824;2023-07-28T07:43:47;101649.59;;;24.07;65.77
63090;BME280;49174;43.198;27.824;2023-07-28T07:46:15;101648.28;;;24.20;64.91
63090;BME280;49174;43.198;27.824;2023-07-28T07:48:41;101652.75;;;24.31;64.92
63090;BME280;49174;43.198;27.824;2023-07-28T07:51:08;101648.63;;;24.34;61.53
63090;BME280;49174;43.198;27.824;2023-07-28T07:53:34;101640.69;;;24.38;63.33
63090;BME280;49174;43.198;27.824;2023-07-28T07:56:04;101643.28;;;24.55;63.37
63090;BME280;49174;43.198;27.824;2023-07-28T07:58:30;101642.75;;;24.68;60.49
63090;BME280;49174;43.198;27.824;2023-07-28T08:00:56;101645.00;;;24.76;59.75
63090;BME280;49174;43.198;27.824;2023-07-28T08:03:22;101636.22;;;24.94;59.69
63090;BME280;49174;43.198;27.824;2023-07-28T08:05:48;101631.28;;;25.02;58.90
63090;BME280;49174;43.198;27.824;2023-07-28T08:08:14;101636.88;;;25.17;58.79
63090;BME280;49174;43.198;27.824;2023-07-28T08:10:43;101633.59;;;25.30;55.80
63090;BME280;49174;43.198;27.824;2023-07-28T08:13:09;101626.97;;;25.47;54.18
63090;BME280;49174;43.198;27.824;2023-07-28T08:15:35;101628.88;;;25.51;52.77
63090;BME280;49174;43.198;27.824;2023-07-28T08:18:00;101626.97;;;25.62;54.18
63090;BME280;49174;43.198;27.824;2023-07-28T08:20:26;101631.94;;;25.75;53.39
63090;BME280;49174;43.198;27.824;2023-07-28T08:22:52;101633.63;;;25.87;54.58
63090;BME280;49174;43.198;27.824;2023-07-28T08:25:17;101629.47;;;25.94;52.33
63090;BME280;49174;43.198;27.824;2023-07-28T08:27:43;101619.78;;;25.92;50.27
63090;BME280;49174;43.198;27.824;2023-07-28T08:30:09;101617.56;;;25.99;53.79
63090;BME280;49174;43.198;27.824;2023-07-28T08:32:35;101615.06;;;26.02;49.55
63090;BME280;49174;43.198;27.824;2023-07-28T08:35:02;101615.59;;;26.15;52.60
63090;BME280;49174;43.198;27.824;2023-07-28T08:37:28;101618.03;;;26.26;50.54
63090;BME280;49174;43.198;27.824;2023-07-28T08:39:54;101621.03;;;26.45;53.10
63090;BME280;49174;43.198;27.824;2023-07-28T08:42:21;101618.28;;;26.50;49.19
63090;BME280;49174;43.198;27.824;2023-07-28T08:44:47;101617.38;;;26.60;49.04
63090;BME280;49174;43.198;27.824;2023-07-28T08:47:14;101618.50;;;26.64;47.59
63090;BME280;49174;43.198;27.824;2023-07-28T08:49:40;101620.72;;;26.62;48.87
63090;BME280;49174;43.198;27.824;2023-07-28T08:52:07;101620.75;;;26.47;45.85
63090;BME280;49174;43.198;27.824;2023-07-28T08:54:32;101610.22;;;26.49;45.71
63090;BME280;49174;43.198;27.824;2023-07-28T08:56:58;101611.81;;;26.70;50.61
63090;BME280;49174;43.198;27.824;2023-07-28T08:59:25;101600.69;;;26.81;45.01
63090;BME280;49174;43.198;27.824;2023-07-28T09:01:52;101604.78;;;26.88;44.53
63090;BME280;49174;43.198;27.824;2023-07-28T09:04:19;101602.22;;;27.02;43.05
63090;BME280;49174;43.198;27.824;2023-07-28T09:06:46;101599.06;;;27.19;43.32
63090;BME280;49174;43.198;27.824;2023-07-28T09:09:11;101600.97;;;27.29;43.55
63090;BME280;49174;43.198;27.824;2023-07-28T09:11:48;101607.44;;;27.48;42.80
63090;BME280;49174;43.198;27.824;2023-07-28T09:14:16;101609.22;;;27.68;44.59
63090;BME280;49174;43.198;27.824;2023-07-28T09:16:42;101609.56;;;27.61;42.28
63090;BME280;49174;43.198;27.824;2023-07-28T09:19:09;101606.41;;;27.73;44.36
63090;BME280;49174;43.198;27.824;2023-07-28T09:21:35;101606.06;;;27.80;46.51
63090;BME280;49174;43.198;27.824;2023-07-28T09:24:03;101606.16;;;27.99;46.67
63090;BME280;49174;43.198;27.824;2023-07-28T09:26:44;101598.72;;;27.94;41.27
63090;BME280;49174;43.198;27.824;2023-07-28T09:29:15;101601.63;;;28.08;42.74
63090;BME280;49174;43.198;27.824;2023-07-28T09:31:42;101599.22;;;28.25;43.82
63090;BME280;49174;43.198;27.824;2023-07-28T09:34:12;101593.84;;;28.34;41.96
63090;BME280;49174;43.198;27.824;2023-07-28T09:36:39;101589.88;;;28.40;42.31
63090;BME280;49174;43.198;27.824;2023-07-28T09:39:06;101586.16;;;28.50;44.37
63090;BME280;49174;43.198;27.824;2023-07-28T09:41:38;101593.56;;;28.60;42.81
63090;BME280;49174;43.198;27.824;2023-07-28T09:44:06;101592.06;;;28.67;43.81
63090;BME280;49174;43.198;27.824;2023-07-28T09:46:35;101593.50;;;28.65;40.35
63090;BME280;49174;43.198;27.824;2023-07-28T09:49:04;101591.75;;;28.69;42.27
63090;BME280;49174;43.198;27.824;2023-07-28T09:51:31;101591.47;;;28.70;37.72
63090;BME280;49174;43.198;27.824;2023-07-28T09:54:10;101591.47;;;28.70;51.29
63090;BME280;49174;43.198;27.824;2023-07-28T09:56:38;101585.16;;;28.65;39.75
63090;BME280;49174;43.198;27.824;2023-07-28T09:59:10;101587.94;;;28.65;38.70
63090;BME280;49174;43.198;27.824;2023-07-28T10:01:36;101596.72;;;28.72;37.65
63090;BME280;49174;43.198;27.824;2023-07-28T10:04:03;101585.69;;;28.67;39.45
63090;BME280;49174;43.198;27.824;2023-07-28T10:06:29;101587.19;;;28.78;42.66
63090;BME280;49174;43.198;27.824;2023-07-28T10:08:55;101578.25;;;29.00;37.73
63090;BME280;49174;43.198;27.824;2023-07-28T10:11:22;101570.09;;;29.09;37.53
63090;BME280;49174;43.198;27.824;2023-07-28T10:13:48;101571.31;;;29.35;39.51
63090;BME280;49174;43.198;27.824;2023-07-28T10:16:16;101561.75;;;29.42;35.64
63090;BME280;49174;43.198;27.824;2023-07-28T10:18:54;101559.38;;;29.35;33.03
63090;BME280;49174;43.198;27.824;2023-07-28T10:21:20;101552.56;;;29.27;32.73
63090;BME280;49174;43.198;27.824;2023-07-28T10:23:54;101558.84;;;29.33;35.11
63090;BME280;49174;43.198;27.824;2023-07-28T10:26:37;101556.13;;;29.47;36.28
63090;BME280;49174;43.198;27.824;2023-07-28T10:29:14;101554.81;;;29.58;39.02
63090;BME280;49174;43.198;27.824;2023-07-28T10:34:17;101542.41;;;29.83;32.17
63090;BME280;49174;43.198;27.824;2023-07-28T10:36:43;101537.34;;;29.71;32.51
63090;BME280;49174;43.198;27.824;2023-07-28T10:39:15;101527.66;;;29.69;33.54
63090;BME280;49174;43.198;27.824;2023-07-28T10:42:02;101525.94;;;29.87;35.88
63090;BME280;49174;43.198;27.824;2023-07-28T10:44:29;101528.94;;;30.04;34.51
63090;BME280;49174;43.198;27.824;2023-07-28T10:46:55;101522.03;;;30.01;29.98
63090;BME280;49174;43.198;27.824;2023-07-28T10:49:21;101516.38;;;29.93;30.26
63090;BME280;49174;43.198;27.824;2023-07-28T10:51:46;101518.91;;;30.03;34.33
63090;BME280;49174;43.198;27.824;2023-07-28T10:54:12;101510.78;;;30.20;33.29
63090;BME280;49174;43.198;27.824;2023-07-28T10:56:44;101514.41;;;30.35;33.30
63090;BME280;49174;43.198;27.824;2023-07-28T10:59:09;101512.31;;;30.40;32.77
63090;BME280;49174;43.198;27.824;2023-07-28T11:01:37;101514.28;;;30.40;33.13
63090;BME280;49174;43.198;27.824;2023-07-28T11:04:16;101501.69;;;30.42;32.34
63090;BME280;49174;43.198;27.824;2023-07-28T11:06:48;101493.03;;;30.44;31.66
63090;BME280;49174;43.198;27.824;2023-07-28T11:09:17;101503.44;;;30.38;34.17
63090;BME280;49174;43.198;27.824;2023-07-28T11:11:44;101499.97;;;30.33;34.43
63090;BME280;49174;43.198;27.824;2023-07-28T11:14:10;101499.63;;;30.48;35.53
63090;BME280;49174;43.198;27.824;2023-07-28T11:16:38;101489.50;;;30.52;30.66
63090;BME280;49174;43.198;27.824;2023-07-28T11:19:09;101496.47;;;30.63;34.67
63090;BME280;49174;43.198;27.824;2023-07-28T11:21:38;101494.78;;;30.76;33.41
63090;BME280;49174;43.198;27.824;2023-07-28T11:24:05;101492.50;;;30.78;36.02
63090;BME280;49174;43.198;27.824;2023-07-28T11:26:32;101492.47;;;30.92;33.78
63090;BME280;49174;43.198;27.824;2023-07-28T11:28:59;101483.63;;;30.90;33.97
63090;BME280;49174;43.198;27.824;2023-07-28T11:31:25;101482.69;;;31.03;33.86
63090;BME280;49174;43.198;27.824;2023-07-28T11:33:53;101483.09;;;31.10;32.26
63090;BME280;49174;43.198;27.824;2023-07-28T11:36:27;101482.75;;;31.12;32.70
63090;BME280;49174;43.198;27.824;2023-07-28T11:38:55;101475.88;;;31.09;30.63
63090;BME280;49174;43.198;27.824;2023-07-28T11:41:22;101482.06;;;31.06;29.89
63090;BME280;49174;43.198;27.824;2023-07-28T11:43:49;101474.94;;;30.91;31.68
63090;BME280;49174;43.198;27.824;2023-07-28T11:46:34;101473.66;;;30.98;34.64
63090;BME280;49174;43.198;27.824;2023-07-28T11:49:17;101469.16;;;31.10;32.39
63090;BME280;49174;43.198;27.824;2023-07-28T11:51:50;101466.75;;;31.17;33.39
63090;BME280;49174;43.198;27.824;2023-07-28T11:54:20;101460.97;;;31.36;33.39
63090;BME280;49174;43.198;27.824;2023-07-28T11:56:48;101457.91;;;31.47;32.79
63090;BME280;49174;43.198;27.824;2023-07-28T11:59:20;101458.06;;;31.50;32.24
63090;BME280;49174;43.198;27.824;2023-07-28T12:02:00;101451.47;;;31.37;27.82
63090;BME280;49174;43.198;27.824;2023-07-28T12:04:30;101442.00;;;31.25;29.55
63090;BME280;49174;43.198;27.824;2023-07-28T12:07:06;101445.13;;;31.23;32.72
63090;BME280;49174;43.198;27.824;2023-07-28T12:09:33;101440.50;;;31.19;30.36
63090;BME280;49174;43.198;27.824;2023-07-28T12:11:59;101447.28;;;31.26;33.31
63090;BME280;49174;43.198;27.824;2023-07-28T12:14:34;101438.44;;;31.33;32.81
63090;BME280;49174;43.198;27.824;2023-07-28T12:17:00;101440.63;;;31.36;32.47
63090;BME280;49174;43.198;27.824;2023-07-28T12:19:27;101435.97;;;31.31;32.93
63090;BME280;49174;43.198;27.824;2023-07-28T12:21:52;101433.59;;;31.16;32.63
63090;BME280;49174;43.198;27.824;2023-07-28T12:24:18;101444.25;;;31.14;31.50
63090;BME280;49174;43.198;27.824;2023-07-28T12:26:45;101430.19;;;31.19;34.72
63090;BME280;49174;43.198;27.824;2023-07-28T12:29:11;101432.03;;;31.24;31.26
63090;BME280;49174;43.198;27.824;2023-07-28T12:31:37;101423.28;;;31.16;28.89
63090;BME280;49174;43.198;27.824;2023-07-28T12:34:02;101419.97;;;31.14;30.01
63090;BME280;49174;43.198;27.824;2023-07-28T12:36:28;101418.03;;;31.15;33.06
63090;BME280;49174;43.198;27.824;2023-07-28T12:38:53;101418.34;;;31.13;31.01
63090;BME280;49174;43.198;27.824;2023-07-28T12:41:19;101427.09;;;31.21;31.61
63090;BME280;49174;43.198;27.824;2023-07-28T12:43:45;101423.00;;;31.27;32.01
63090;BME280;49174;43.198;27.824;2023-07-28T12:46:11;101417.09;;;31.28;37.53
63090;BME280;49174;43.198;27.824;2023-07-28T12:48:37;101417.75;;;31.25;36.96
63090;BME280;49174;43.198;27.824;2023-07-28T12:51:03;101411.72;;;31.32;37.72